Gamboa Airport


Codes: SCST/WCA
Name: Gamboa Airport
City: Castro
Country: Chile
Elevation: 151 ft.

Photos at Gamboa Airport


   Photos courtesy of SpottingLog. You can add your own sightings and photos by signing up for a free trial today.



No photos found.

Weather at Gamboa Airport


Time (UTC)DescriptionTempratureWindCloud coverageVisibilityPressureHumidity
26-Jun-2024 00:00Moderate Rain8°C11 mph, N100%5114m1013hPa94%
26-Jun-2024 03:00Heavy Intensity Rain9°C11 mph, NW100%2679m1012hPa93%
26-Jun-2024 06:00Moderate Rain10°C11 mph, NW100%10000m1011hPa92%
26-Jun-2024 09:00Light Rain11°C11 mph, W100%4741m1010hPa92%
26-Jun-2024 12:00Moderate Rain11°C11 mph, W100%5416m1011hPa92%
26-Jun-2024 15:00Light Rain11°C11 mph, W100%10000m1012hPa90%
26-Jun-2024 18:00Light Rain11°C7 mph, W100%10000m1013hPa87%
26-Jun-2024 21:00Light Rain10°C4 mph, W100%7748m1013hPa93%
27-Jun-2024 00:00Moderate Rain9°C2 mph, W100%10000m1013hPa93%
27-Jun-2024 03:00Moderate Rain9°C2 mph, W100%9262m1011hPa96%
27-Jun-2024 06:00Moderate Rain8°C2 mph, NW100%10000m1009hPa95%
27-Jun-2024 09:00Light Rain8°C2 mph, W100%10000m1008hPa95%
27-Jun-2024 12:00Light Rain8°C4 mph, SW100%10000m1010hPa92%
27-Jun-2024 15:00Light Rain8°C7 mph, SW86%10000m1012hPa88%
27-Jun-2024 18:00Light Rain8°C9 mph, SW66%10000m1014hPa78%
27-Jun-2024 21:00Light Rain7°C9 mph, SW19%10000m1016hPa80%
28-Jun-2024 00:00Few Clouds6°C7 mph, SW16%10000m1020hPa86%
28-Jun-2024 03:00Few Clouds5°C4 mph, SW18%10000m1022hPa90%
28-Jun-2024 06:00Few Clouds4°C4 mph, W20%10000m1024hPa91%
28-Jun-2024 09:00Few Clouds4°C4 mph, SW19%10000m1026hPa90%
28-Jun-2024 12:00Few Clouds4°C2 mph, W24%10000m1027hPa88%
28-Jun-2024 15:00Broken Clouds7°C4 mph, SW51%10000m1028hPa75%
28-Jun-2024 18:00Scattered Clouds9°C4 mph, S29%10000m1028hPa64%
28-Jun-2024 21:00Clear Sky6°C2 mph, SE8%10000m1029hPa81%
29-Jun-2024 00:00Scattered Clouds4°C2 mph, SW29%10000m1030hPa92%
29-Jun-2024 03:00Few Clouds3°C2 mph, W13%10000m1030hPa94%
29-Jun-2024 06:00Scattered Clouds3°C0 mph, W39%10000m1029hPa93%
29-Jun-2024 09:00Scattered Clouds3°C2 mph, W50%10000m1029hPa93%
29-Jun-2024 12:00Broken Clouds3°C2 mph, NW75%10000m1028hPa93%
29-Jun-2024 15:00Overcast Clouds6°C0 mph, N100%10000m1028hPa84%
29-Jun-2024 18:00Overcast Clouds7°C2 mph, NE100%10000m1026hPa77%
29-Jun-2024 21:00Overcast Clouds6°C2 mph, NW100%10000m1025hPa83%
30-Jun-2024 00:00Overcast Clouds4°C2 mph, W96%10000m1025hPa86%
30-Jun-2024 03:00Scattered Clouds4°C2 mph, N47%10000m1024hPa81%
30-Jun-2024 06:00Scattered Clouds4°C2 mph, NW46%10000m1023hPa75%
30-Jun-2024 09:00Overcast Clouds4°C4 mph, NW86%10000m1022hPa83%
30-Jun-2024 12:00Overcast Clouds5°C4 mph, N91%10000m1022hPa91%
30-Jun-2024 15:00Overcast Clouds8°C7 mph, N100%10000m1021hPa88%
30-Jun-2024 18:00Overcast Clouds10°C9 mph, N100%10000m1019hPa91%
30-Jun-2024 21:00Overcast Clouds10°C9 mph, N100%9584m1018hPa93%